createdAt,value
2022-11-24T00:04:19.124Z,7.5
2022-11-24T00:18:48.981Z,7.6
2022-11-24T00:33:18.927Z,7.5
2022-11-24T00:47:45.851Z,7
2022-11-24T01:02:15.776Z,7.1
2022-11-24T01:16:45.812Z,7.2
2022-11-24T01:31:15.805Z,7.1
2022-11-24T01:45:46.213Z,7.4
2022-11-24T02:00:16.580Z,7.4
2022-11-24T02:14:46.647Z,7.5
2022-11-24T02:29:15.988Z,7.4
2022-11-24T02:43:46.914Z,7.5
2022-11-24T02:58:17.970Z,7.6
2022-11-24T03:12:48.686Z,7.8
2022-11-24T03:27:17.961Z,7.5
2022-11-24T03:41:47.180Z,7.4
2022-11-24T03:56:16.103Z,7.4
2022-11-24T04:10:45.747Z,7.4
2022-11-24T04:25:15.980Z,7.6
2022-11-24T04:39:45.907Z,7.8
2022-11-24T04:54:16.295Z,7.8
2022-11-24T05:08:45.484Z,8
2022-11-24T05:23:16.198Z,8.1
2022-11-24T05:37:46.625Z,8.1
2022-11-24T05:52:16.348Z,8.1
2022-11-24T06:06:46.383Z,8.1
2022-11-24T06:21:15.665Z,8.1
2022-11-24T06:35:43.569Z,8.1
2022-11-24T06:50:13.693Z,8
2022-11-24T07:04:43.719Z,8
2022-11-24T07:19:12.824Z,8
2022-11-24T07:33:43.012Z,8
2022-11-24T07:48:12.698Z,8
2022-11-24T08:02:43.930Z,8.1
2022-11-24T08:17:14.166Z,8.1
2022-11-24T08:31:43.805Z,8.1
2022-11-24T08:46:13.863Z,8.1
2022-11-24T09:00:43.591Z,7.9
2022-11-24T09:15:13.670Z,8
2022-11-24T09:29:43.682Z,8.1
2022-11-24T09:44:14.393Z,8.2
2022-11-24T09:58:44.515Z,8.3
2022-11-24T10:13:15.185Z,8.4
2022-11-24T10:27:45.325Z,8.5
2022-11-24T10:42:17.683Z,8.6
2022-11-24T10:56:48.088Z,8.7
2022-11-24T11:11:19.019Z,9.1
2022-11-24T11:25:49.669Z,9.3
2022-11-24T11:40:18.985Z,9.3
2022-11-24T11:54:56.023Z,9.9
2022-11-24T12:09:23.101Z,9.9
2022-11-24T12:23:51.788Z,9.8
2022-11-24T12:38:19.384Z,9.4
2022-11-24T12:52:59.281Z,9.6
2022-11-24T13:07:21.965Z,9.4
2022-11-24T13:21:50.867Z,9.1
2022-11-24T13:36:19.863Z,9.1
2022-11-24T13:50:48.441Z,9.2
2022-11-24T14:05:18.934Z,9.3
2022-11-24T14:19:51.236Z,9.7
2022-11-24T14:34:21.507Z,9.5
2022-11-24T14:48:49.645Z,9.2
2022-11-24T15:03:19.183Z,9.3
2022-11-24T15:17:46.365Z,9.1
2022-11-24T15:32:15.427Z,8.4
2022-11-24T15:46:44.529Z,8.3
2022-11-24T16:01:13.303Z,8.3
2022-11-24T16:15:43.675Z,8.1
2022-11-24T16:30:12.404Z,8.1
2022-11-24T16:44:41.849Z,7.9
2022-11-24T16:59:12.146Z,7.7
2022-11-24T17:13:41.205Z,7.7
2022-11-24T17:28:09.737Z,7.5
2022-11-24T17:42:38.353Z,7.5
2022-11-24T17:57:07.672Z,7.4
2022-11-24T18:11:36.000Z,7.3
2022-11-24T18:26:05.104Z,7.3
2022-11-24T18:40:36.365Z,7.2
2022-11-24T18:55:06.196Z,7.3
2022-11-24T19:09:33.955Z,7.3
2022-11-24T19:24:06.250Z,7.4
2022-11-24T19:38:31.934Z,7.2
2022-11-24T19:53:01.186Z,6.9
2022-11-24T20:07:28.252Z,6.5
2022-11-24T20:21:58.823Z,6.7
2022-11-24T20:36:26.103Z,5.8
2022-11-24T20:50:55.415Z,5.8
2022-11-24T21:05:23.212Z,5.4
2022-11-24T21:20:01.628Z,5.5
2022-11-24T21:34:25.668Z,5.8
2022-11-24T21:48:55.721Z,6
2022-11-24T22:03:25.144Z,5.7
2022-11-24T22:17:53.630Z,5.4
2022-11-24T22:32:23.477Z,5.7
2022-11-24T22:46:54.192Z,6.2
2022-11-24T23:01:23.350Z,6.2
2022-11-24T23:15:54.429Z,6.5
2022-11-24T23:30:23.639Z,6.3
2022-11-24T23:44:53.157Z,6
2022-11-24T23:59:21.720Z,6.2
